sensor_id;sensor_type;location;lat;lon;timestamp;temperature;humidity
12111;DHT22;6119;52.372;8.990;2022-11-20T00:00:44;-1.30;99.90
12111;DHT22;6119;52.372;8.990;2022-11-20T00:03:31;-1.30;99.90
12111;DHT22;6119;52.372;8.990;2022-11-20T00:06:19;-1.30;99.90
12111;DHT22;6119;52.372;8.990;2022-11-20T00:09:06;-1.40;99.90
12111;DHT22;6119;52.372;8.990;2022-11-20T00:11:52;-1.40;99.90
12111;DHT22;6119;52.372;8.990;2022-11-20T00:14:39;-1.30;99.90
12111;DHT22;6119;52.372;8.990;2022-11-20T00:17:27;-1.40;99.90
12111;DHT22;6119;52.372;8.990;2022-11-20T00:20:15;-1.50;99.90
12111;DHT22;6119;52.372;8.990;2022-11-20T00:23:01;-1.40;99.90
12111;DHT22;6119;52.372;8.990;2022-11-20T00:25:48;-1.40;99.90
12111;DHT22;6119;52.372;8.990;2022-11-20T00:28:34;-1.40;99.90
12111;DHT22;6119;52.372;8.990;2022-11-20T00:31:21;-1.50;99.90
12111;DHT22;6119;52.372;8.990;2022-11-20T00:34:10;-1.60;99.90
12111;DHT22;6119;52.372;8.990;2022-11-20T00:36:56;-1.50;99.90
12111;DHT22;6119;52.372;8.990;2022-11-20T00:39:43;-1.50;99.90
12111;DHT22;6119;52.372;8.990;2022-11-20T00:42:29;-1.60;99.90
12111;DHT22;6119;52.372;8.990;2022-11-20T00:45:18;-1.70;99.90
12111;DHT22;6119;52.372;8.990;2022-11-20T00:48:04;-1.50;99.90
12111;DHT22;6119;52.372;8.990;2022-11-20T00:50:53;-1.60;99.90
12111;DHT22;6119;52.372;8.990;2022-11-20T00:53:39;-1.60;99.90
12111;DHT22;6119;52.372;8.990;2022-11-20T00:56:26;-1.50;99.90
12111;DHT22;6119;52.372;8.990;2022-11-20T00:59:13;-1.60;99.90
12111;DHT22;6119;52.372;8.990;2022-11-20T01:02:00;-1.60;99.90
12111;DHT22;6119;52.372;8.990;2022-11-20T01:04:46;-1.60;99.90
12111;DHT22;6119;52.372;8.990;2022-11-20T01:07:34;-1.60;99.90
12111;DHT22;6119;52.372;8.990;2022-11-20T01:10:21;-1.60;99.90
12111;DHT22;6119;52.372;8.990;2022-11-20T01:13:07;-1.60;99.90
12111;DHT22;6119;52.372;8.990;2022-11-20T01:16:13;-1.80;99.90
12111;DHT22;6119;52.372;8.990;2022-11-20T01:19:02;-1.80;99.90
12111;DHT22;6119;52.372;8.990;2022-11-20T01:21:50;-1.70;99.90
12111;DHT22;6119;52.372;8.990;2022-11-20T01:24:39;-1.70;99.90
12111;DHT22;6119;52.372;8.990;2022-11-20T01:27:26;-1.80;99.90
12111;DHT22;6119;52.372;8.990;2022-11-20T01:30:13;-1.70;99.90
12111;DHT22;6119;52.372;8.990;2022-11-20T01:33:00;-1.70;99.90
12111;DHT22;6119;52.372;8.990;2022-11-20T01:35:46;-1.70;99.90
12111;DHT22;6119;52.372;8.990;2022-11-20T01:38:33;-1.80;99.90
12111;DHT22;6119;52.372;8.990;2022-11-20T01:41:22;-1.80;99.90
12111;DHT22;6119;52.372;8.990;2022-11-20T01:44:48;-1.70;99.90
12111;DHT22;6119;52.372;8.990;2022-11-20T01:47:37;-1.70;99.90
12111;DHT22;6119;52.372;8.990;2022-11-20T01:50:27;-1.90;99.90
12111;DHT22;6119;52.372;8.990;2022-11-20T01:53:17;-1.90;99.90
12111;DHT22;6119;52.372;8.990;2022-11-20T01:56:08;-1.80;99.90
12111;DHT22;6119;52.372;8.990;2022-11-20T01:58:59;-1.80;99.90
12111;DHT22;6119;52.372;8.990;2022-11-20T02:01:47;-1.80;99.90
12111;DHT22;6119;52.372;8.990;2022-11-20T02:04:34;-1.80;99.90
12111;DHT22;6119;52.372;8.990;2022-11-20T02:07:21;-1.80;99.90
12111;DHT22;6119;52.372;8.990;2022-11-20T02:10:09;-1.90;99.90
12111;DHT22;6119;52.372;8.990;2022-11-20T02:12:56;-1.90;99.90
12111;DHT22;6119;52.372;8.990;2022-11-20T02:16:02;-1.80;99.90
12111;DHT22;6119;52.372;8.990;2022-11-20T02:18:50;-2.00;99.90
12111;DHT22;6119;52.372;8.990;2022-11-20T02:21:41;-1.90;99.90
12111;DHT22;6119;52.372;8.990;2022-11-20T02:24:30;-1.90;99.90
12111;DHT22;6119;52.372;8.990;2022-11-20T02:27:18;-1.90;99.90
12111;DHT22;6119;52.372;8.990;2022-11-20T02:30:06;-1.90;99.90
12111;DHT22;6119;52.372;8.990;2022-11-20T02:32:53;-1.80;99.90
12111;DHT22;6119;52.372;8.990;2022-11-20T02:35:43;-1.80;99.90
12111;DHT22;6119;52.372;8.990;2022-11-20T02:38:30;-1.70;99.90
12111;DHT22;6119;52.372;8.990;2022-11-20T02:41:17;-1.80;99.90
12111;DHT22;6119;52.372;8.990;2022-11-20T02:44:04;-1.80;99.90
12111;DHT22;6119;52.372;8.990;2022-11-20T02:46:51;-1.80;99.90
12111;DHT22;6119;52.372;8.990;2022-11-20T02:49:37;-1.90;99.90
12111;DHT22;6119;52.372;8.990;2022-11-20T02:52:24;-1.90;99.90
12111;DHT22;6119;52.372;8.990;2022-11-20T02:55:11;-1.90;99.90
12111;DHT22;6119;52.372;8.990;2022-11-20T02:57:59;-2.00;99.90
12111;DHT22;6119;52.372;8.990;2022-11-20T03:00:46;-1.90;99.90
12111;DHT22;6119;52.372;8.990;2022-11-20T03:03:33;-1.90;99.90
12111;DHT22;6119;52.372;8.990;2022-11-20T03:06:19;-1.80;99.90
12111;DHT22;6119;52.372;8.990;2022-11-20T03:09:06;-1.90;99.90
12111;DHT22;6119;52.372;8.990;2022-11-20T03:11:52;-1.90;99.90
12111;DHT22;6119;52.372;8.990;2022-11-20T03:14:40;-1.90;99.90
12111;DHT22;6119;52.372;8.990;2022-11-20T03:17:27;-1.90;99.90
12111;DHT22;6119;52.372;8.990;2022-11-20T03:20:15;-1.90;99.90
12111;DHT22;6119;52.372;8.990;2022-11-20T03:23:01;-2.00;99.90
12111;DHT22;6119;52.372;8.990;2022-11-20T03:25:48;-2.10;99.90
12111;DHT22;6119;52.372;8.990;2022-11-20T03:28:34;-2.00;99.90
12111;DHT22;6119;52.372;8.990;2022-11-20T03:31:24;-2.00;99.90
12111;DHT22;6119;52.372;8.990;2022-11-20T03:34:11;-2.10;99.90
12111;DHT22;6119;52.372;8.990;2022-11-20T03:36:58;-2.10;99.90
12111;DHT22;6119;52.372;8.990;2022-11-20T03:39:44;-2.20;99.90
12111;DHT22;6119;52.372;8.990;2022-11-20T03:42:31;-2.10;99.90
12111;DHT22;6119;52.372;8.990;2022-11-20T03:45:32;-2.10;99.90
12111;DHT22;6119;52.372;8.990;2022-11-20T03:48:20;-2.10;99.90
12111;DHT22;6119;52.372;8.990;2022-11-20T03:51:09;-2.10;99.90
12111;DHT22;6119;52.372;8.990;2022-11-20T03:53:57;-2.00;99.90
12111;DHT22;6119;52.372;8.990;2022-11-20T03:56:44;-2.00;99.90
12111;DHT22;6119;52.372;8.990;2022-11-20T03:59:31;-2.10;99.90
12111;DHT22;6119;52.372;8.990;2022-11-20T04:02:17;-2.00;99.90
12111;DHT22;6119;52.372;8.990;2022-11-20T04:05:06;-2.00;99.90
12111;DHT22;6119;52.372;8.990;2022-11-20T04:07:53;-2.00;99.90
12111;DHT22;6119;52.372;8.990;2022-11-20T04:10:39;-1.90;99.90
12111;DHT22;6119;52.372;8.990;2022-11-20T04:13:26;-2.00;99.90
12111;DHT22;6119;52.372;8.990;2022-11-20T04:16:12;-1.80;99.90
12111;DHT22;6119;52.372;8.990;2022-11-20T04:19:00;-1.90;99.90
12111;DHT22;6119;52.372;8.990;2022-11-20T04:21:49;-1.70;99.90
12111;DHT22;6119;52.372;8.990;2022-11-20T04:24:35;-1.50;99.90
12111;DHT22;6119;52.372;8.990;2022-11-20T04:27:22;-1.50;99.90
12111;DHT22;6119;52.372;8.990;2022-11-20T04:30:09;-1.50;99.90
12111;DHT22;6119;52.372;8.990;2022-11-20T04:32:56;-1.40;99.90
12111;DHT22;6119;52.372;8.990;2022-11-20T04:35:43;-1.30;99.90
12111;DHT22;6119;52.372;8.990;2022-11-20T04:38:34;-1.20;99.90
12111;DHT22;6119;52.372;8.990;2022-11-20T04:41:22;-1.20;99.90
12111;DHT22;6119;52.372;8.990;2022-11-20T04:44:08;-1.20;99.90
12111;DHT22;6119;52.372;8.990;2022-11-20T04:46:55;-1.10;99.90
12111;DHT22;6119;52.372;8.990;2022-11-20T04:49:41;-1.00;99.90
12111;DHT22;6119;52.372;8.990;2022-11-20T04:52:28;-1.00;99.90
12111;DHT22;6119;52.372;8.990;2022-11-20T04:55:16;-0.90;99.90
12111;DHT22;6119;52.372;8.990;2022-11-20T04:58:03;-0.90;99.90
12111;DHT22;6119;52.372;8.990;2022-11-20T05:00:49;-1.00;99.90
12111;DHT22;6119;52.372;8.990;2022-11-20T05:03:37;-1.10;99.90
12111;DHT22;6119;52.372;8.990;2022-11-20T05:06:27;-1.00;99.90
12111;DHT22;6119;52.372;8.990;2022-11-20T05:09:13;-1.00;99.90
12111;DHT22;6119;52.372;8.990;2022-11-20T05:12:01;-0.90;99.90
12111;DHT22;6119;52.372;8.990;2022-11-20T05:14:48;-0.90;99.90
12111;DHT22;6119;52.372;8.990;2022-11-20T05:17:34;-0.80;99.90
12111;DHT22;6119;52.372;8.990;2022-11-20T05:20:21;-0.90;99.90
12111;DHT22;6119;52.372;8.990;2022-11-20T05:23:07;-0.80;99.90
12111;DHT22;6119;52.372;8.990;2022-11-20T05:25:54;-0.80;99.90
12111;DHT22;6119;52.372;8.990;2022-11-20T05:28:45;-0.80;99.90
12111;DHT22;6119;52.372;8.990;2022-11-20T05:31:32;-0.70;99.90
12111;DHT22;6119;52.372;8.990;2022-11-20T05:34:18;-0.70;99.90
12111;DHT22;6119;52.372;8.990;2022-11-20T05:37:04;-0.70;99.90
12111;DHT22;6119;52.372;8.990;2022-11-20T05:39:51;-0.70;99.90
12111;DHT22;6119;52.372;8.990;2022-11-20T05:42:38;-0.80;99.90
12111;DHT22;6119;52.372;8.990;2022-11-20T05:45:25;-0.70;99.90
12111;DHT22;6119;52.372;8.990;2022-11-20T05:48:12;-0.70;99.90
12111;DHT22;6119;52.372;8.990;2022-11-20T05:50:59;-0.60;99.90
12111;DHT22;6119;52.372;8.990;2022-11-20T05:53:46;-0.60;99.90
12111;DHT22;6119;52.372;8.990;2022-11-20T05:56:33;-0.60;99.90
12111;DHT22;6119;52.372;8.990;2022-11-20T05:59:19;-0.50;99.90
12111;DHT22;6119;52.372;8.990;2022-11-20T06:02:08;-0.50;99.90
12111;DHT22;6119;52.372;8.990;2022-11-20T06:04:54;-0.60;99.90
12111;DHT22;6119;52.372;8.990;2022-11-20T06:07:41;-0.70;99.90
12111;DHT22;6119;52.372;8.990;2022-11-20T06:10:28;-0.60;99.90
12111;DHT22;6119;52.372;8.990;2022-11-20T06:13:14;-0.60;99.90
12111;DHT22;6119;52.372;8.990;2022-11-20T06:16:01;-0.60;99.90
12111;DHT22;6119;52.372;8.990;2022-11-20T06:18:49;-0.60;99.90
12111;DHT22;6119;52.372;8.990;2022-11-20T06:21:36;-0.70;99.90
12111;DHT22;6119;52.372;8.990;2022-11-20T06:24:22;-0.70;99.90
12111;DHT22;6119;52.372;8.990;2022-11-20T06:27:10;-0.70;99.90
12111;DHT22;6119;52.372;8.990;2022-11-20T06:29:56;-0.70;99.90
12111;DHT22;6119;52.372;8.990;2022-11-20T06:32:43;-0.60;99.90
12111;DHT22;6119;52.372;8.990;2022-11-20T06:35:31;-0.60;99.90
12111;DHT22;6119;52.372;8.990;2022-11-20T06:38:17;-0.70;99.90
12111;DHT22;6119;52.372;8.990;2022-11-20T06:41:04;-0.60;99.90
12111;DHT22;6119;52.372;8.990;2022-11-20T06:43:51;-0.60;99.90
12111;DHT22;6119;52.372;8.990;2022-11-20T06:46:38;-0.60;99.90
12111;DHT22;6119;52.372;8.990;2022-11-20T06:49:25;-0.50;99.90
12111;DHT22;6119;52.372;8.990;2022-11-20T06:52:13;-0.50;99.90
12111;DHT22;6119;52.372;8.990;2022-11-20T06:55:00;-0.60;99.90
12111;DHT22;6119;52.372;8.990;2022-11-20T06:57:46;-0.60;99.90
12111;DHT22;6119;52.372;8.990;2022-11-20T07:00:40;-0.60;99.90
12111;DHT22;6119;52.372;8.990;2022-11-20T07:03:28;-0.60;99.90
12111;DHT22;6119;52.372;8.990;2022-11-20T07:06:14;-0.60;99.90
12111;DHT22;6119;52.372;8.990;2022-11-20T07:09:02;-0.60;99.90
12111;DHT22;6119;52.372;8.990;2022-11-20T07:11:55;-0.60;99.90
12111;DHT22;6119;52.372;8.990;2022-11-20T07:14:42;-0.50;99.90
12111;DHT22;6119;52.372;8.990;2022-11-20T07:17:28;-0.50;99.90
12111;DHT22;6119;52.372;8.990;2022-11-20T07:20:15;-0.60;99.90
12111;DHT22;6119;52.372;8.990;2022-11-20T07:23:02;-0.60;99.90
12111;DHT22;6119;52.372;8.990;2022-11-20T07:25:50;-0.50;99.90
12111;DHT22;6119;52.372;8.990;2022-11-20T07:28:37;-0.40;99.90
12111;DHT22;6119;52.372;8.990;2022-11-20T07:31:23;-0.50;99.90
12111;DHT22;6119;52.372;8.990;2022-11-20T07:34:10;-0.60;99.90
12111;DHT22;6119;52.372;8.990;2022-11-20T07:36:56;-0.30;99.90
12111;DHT22;6119;52.372;8.990;2022-11-20T07:39:43;-0.20;99.90
12111;DHT22;6119;52.372;8.990;2022-11-20T07:42:31;-0.30;99.90
12111;DHT22;6119;52.372;8.990;2022-11-20T07:45:18;-0.30;99.90
12111;DHT22;6119;52.372;8.990;2022-11-20T07:48:05;-0.40;99.90
12111;DHT22;6119;52.372;8.990;2022-11-20T07:50:53;-0.30;99.90
12111;DHT22;6119;52.372;8.990;2022-11-20T07:53:40;-0.30;99.90
12111;DHT22;6119;52.372;8.990;2022-11-20T07:56:26;-0.20;99.90
12111;DHT22;6119;52.372;8.990;2022-11-20T07:59:14;-0.20;99.90
12111;DHT22;6119;52.372;8.990;2022-11-20T08:02:01;-0.20;99.90
12111;DHT22;6119;52.372;8.990;2022-11-20T08:04:48;-0.30;99.90
12111;DHT22;6119;52.372;8.990;2022-11-20T08:07:38;-0.20;99.90
12111;DHT22;6119;52.372;8.990;2022-11-20T08:10:25;-0.20;99.90
12111;DHT22;6119;52.372;8.990;2022-11-20T08:13:11;-0.10;99.90
12111;DHT22;6119;52.372;8.990;2022-11-20T08:16:17;-0.20;99.90
12111;DHT22;6119;52.372;8.990;2022-11-20T08:19:04;-0.10;99.90
12111;DHT22;6119;52.372;8.990;2022-11-20T08:21:50;-0.10;99.90
12111;DHT22;6119;52.372;8.990;2022-11-20T08:24:37;-0.10;99.90
12111;DHT22;6119;52.372;8.990;2022-11-20T08:27:23;0.00;99.90
12111;DHT22;6119;52.372;8.990;2022-11-20T08:30:11;-0.20;99.90
12111;DHT22;6119;52.372;8.990;2022-11-20T08:33:04;0.00;99.90
12111;DHT22;6119;52.372;8.990;2022-11-20T08:35:51;0.10;99.90
12111;DHT22;6119;52.372;8.990;2022-11-20T08:38:37;0.20;99.90
12111;DHT22;6119;52.372;8.990;2022-11-20T08:41:24;0.10;99.90
12111;DHT22;6119;52.372;8.990;2022-11-20T08:44:11;0.10;99.90
12111;DHT22;6119;52.372;8.990;2022-11-20T08:46:57;0.10;99.90
12111;DHT22;6119;52.372;8.990;2022-11-20T08:49:45;0.20;99.90
12111;DHT22;6119;52.372;8.990;2022-11-20T08:52:32;0.20;99.90
12111;DHT22;6119;52.372;8.990;2022-11-20T08:55:24;0.30;99.90
12111;DHT22;6119;52.372;8.990;2022-11-20T08:58:11;0.40;99.90
12111;DHT22;6119;52.372;8.990;2022-11-20T09:00:57;0.40;99.90
12111;DHT22;6119;52.372;8.990;2022-11-20T09:03:44;0.50;99.90
12111;DHT22;6119;52.372;8.990;2022-11-20T09:06:31;0.50;99.90
12111;DHT22;6119;52.372;8.990;2022-11-20T09:09:18;0.60;99.90
12111;DHT22;6119;52.372;8.990;2022-11-20T09:12:06;0.60;99.90
12111;DHT22;6119;52.372;8.990;2022-11-20T09:14:52;0.50;99.90
12111;DHT22;6119;52.372;8.990;2022-11-20T09:17:39;0.60;99.90
12111;DHT22;6119;52.372;8.990;2022-11-20T09:20:26;0.70;99.90
12111;DHT22;6119;52.372;8.990;2022-11-20T09:23:15;0.70;99.90
12111;DHT22;6119;52.372;8.990;2022-11-20T09:26:03;0.70;99.90
12111;DHT22;6119;52.372;8.990;2022-11-20T09:28:49;0.80;99.90
12111;DHT22;6119;52.372;8.990;2022-11-20T09:31:42;-0.10;99.90
12111;DHT22;6119;52.372;8.990;2022-11-20T09:34:28;0.60;99.90
12111;DHT22;6119;52.372;8.990;2022-11-20T09:37:15;0.70;99.90
12111;DHT22;6119;52.372;8.990;2022-11-20T09:40:03;0.80;99.90
12111;DHT22;6119;52.372;8.990;2022-11-20T09:42:56;0.80;99.90
12111;DHT22;6119;52.372;8.990;2022-11-20T09:46:04;0.80;99.90
12111;DHT22;6119;52.372;8.990;2022-11-20T09:49:02;0.70;99.90
12111;DHT22;6119;52.372;8.990;2022-11-20T09:51:57;2.40;99.90
12111;DHT22;6119;52.372;8.990;2022-11-20T09:54:44;0.80;99.90
12111;DHT22;6119;52.372;8.990;2022-11-20T09:57:36;0.90;99.90
12111;DHT22;6119;52.372;8.990;2022-11-20T10:00:23;1.00;99.90
12111;DHT22;6119;52.372;8.990;2022-11-20T10:03:14;1.00;99.90
12111;DHT22;6119;52.372;8.990;2022-11-20T10:06:03;1.10;99.90
12111;DHT22;6119;52.372;8.990;2022-11-20T10:08:58;1.10;99.90
12111;DHT22;6119;52.372;8.990;2022-11-20T10:11:51;1.20;99.90
12111;DHT22;6119;52.372;8.990;2022-11-20T10:15:07;1.10;99.90
12111;DHT22;6119;52.372;8.990;2022-11-20T10:18:09;1.00;99.90
12111;DHT22;6119;52.372;8.990;2022-11-20T10:21:05;0.90;99.90
12111;DHT22;6119;52.372;8.990;2022-11-20T10:24:07;1.00;99.90
12111;DHT22;6119;52.372;8.990;2022-11-20T10:27:06;1.30;99.90
12111;DHT22;6119;52.372;8.990;2022-11-20T10:30:01;1.10;99.90
12111;DHT22;6119;52.372;8.990;2022-11-20T10:32:52;1.10;99.90
12111;DHT22;6119;52.372;8.990;2022-11-20T10:35:41;1.10;99.90
12111;DHT22;6119;52.372;8.990;2022-11-20T10:38:34;1.10;99.90
12111;DHT22;6119;52.372;8.990;2022-11-20T10:41:25;1.10;99.90
12111;DHT22;6119;52.372;8.990;2022-11-20T10:44:21;1.20;99.90
12111;DHT22;6119;52.372;8.990;2022-11-20T10:47:25;1.20;99.90
12111;DHT22;6119;52.372;8.990;2022-11-20T10:50:18;1.20;99.90
12111;DHT22;6119;52.372;8.990;2022-11-20T10:53:16;1.20;99.90
12111;DHT22;6119;52.372;8.990;2022-11-20T10:56:07;1.20;99.90
12111;DHT22;6119;52.372;8.990;2022-11-20T11:02:17;1.40;99.90
12111;DHT22;6119;52.372;8.990;2022-11-20T11:05:12;1.40;99.90
12111;DHT22;6119;52.372;8.990;2022-11-20T11:08:03;1.50;99.90
12111;DHT22;6119;52.372;8.990;2022-11-20T11:10:53;1.40;99.90
12111;DHT22;6119;52.372;8.990;2022-11-20T11:13:40;1.50;99.90
12111;DHT22;6119;52.372;8.990;2022-11-20T11:16:27;1.50;99.90
12111;DHT22;6119;52.372;8.990;2022-11-20T11:19:14;1.60;99.90
12111;DHT22;6119;52.372;8.990;2022-11-20T11:22:12;1.80;99.90
12111;DHT22;6119;52.372;8.990;2022-11-20T11:25:03;1.90;99.90
12111;DHT22;6119;52.372;8.990;2022-11-20T11:27:51;1.90;99.90
12111;DHT22;6119;52.372;8.990;2022-11-20T11:30:43;1.80;99.90
12111;DHT22;6119;52.372;8.990;2022-11-20T11:33:31;1.70;99.90
12111;DHT22;6119;52.372;8.990;2022-11-20T11:36:22;1.60;99.90
12111;DHT22;6119;52.372;8.990;2022-11-20T11:39:14;1.70;99.90
12111;DHT22;6119;52.372;8.990;2022-11-20T11:42:01;1.90;99.90
12111;DHT22;6119;52.372;8.990;2022-11-20T11:44:48;2.00;99.90
12111;DHT22;6119;52.372;8.990;2022-11-20T11:47:54;2.10;99.90
12111;DHT22;6119;52.372;8.990;2022-11-20T11:50:48;2.10;99.90
12111;DHT22;6119;52.372;8.990;2022-11-20T11:53:39;2.00;99.90
12111;DHT22;6119;52.372;8.990;2022-11-20T11:56:29;2.00;99.90
12111;DHT22;6119;52.372;8.990;2022-11-20T11:59:24;2.10;99.90
12111;DHT22;6119;52.372;8.990;2022-11-20T12:02:24;2.20;99.90
12111;DHT22;6119;52.372;8.990;2022-11-20T12:05:23;2.20;99.90
12111;DHT22;6119;52.372;8.990;2022-11-20T12:08:15;3.10;99.90
12111;DHT22;6119;52.372;8.990;2022-11-20T12:11:05;2.40;99.90
12111;DHT22;6119;52.372;8.990;2022-11-20T12:14:00;2.40;99.90
12111;DHT22;6119;52.372;8.990;2022-11-20T12:16:50;2.40;99.90
12111;DHT22;6119;52.372;8.990;2022-11-20T12:19:38;2.30;99.90
12111;DHT22;6119;52.372;8.990;2022-11-20T12:22:34;2.30;99.90
12111;DHT22;6119;52.372;8.990;2022-11-20T12:25:28;2.30;99.90
12111;DHT22;6119;52.372;8.990;2022-11-20T12:28:40;2.40;99.90
12111;DHT22;6119;52.372;8.990;2022-11-20T12:34:53;2.70;99.90
12111;DHT22;6119;52.372;8.990;2022-11-20T12:37:47;2.70;99.90
12111;DHT22;6119;52.372;8.990;2022-11-20T12:40:41;2.70;99.90
12111;DHT22;6119;52.372;8.990;2022-11-20T12:43:39;2.70;99.90
12111;DHT22;6119;52.372;8.990;2022-11-20T12:47:04;2.80;99.90
12111;DHT22;6119;52.372;8.990;2022-11-20T12:50:02;2.80;99.90
12111;DHT22;6119;52.372;8.990;2022-11-20T12:52:54;2.90;99.90
12111;DHT22;6119;52.372;8.990;2022-11-20T12:55:49;3.20;99.90
12111;DHT22;6119;52.372;8.990;2022-11-20T12:58:43;3.40;99.90
12111;DHT22;6119;52.372;8.990;2022-11-20T13:01:37;3.40;99.90
12111;DHT22;6119;52.372;8.990;2022-11-20T13:04:47;3.30;99.90
12111;DHT22;6119;52.372;8.990;2022-11-20T13:07:36;3.10;99.90
12111;DHT22;6119;52.372;8.990;2022-11-20T13:10:46;3.10;99.90
12111;DHT22;6119;52.372;8.990;2022-11-20T13:13:45;3.20;99.90
12111;DHT22;6119;52.372;8.990;2022-11-20T13:16:36;3.40;99.90
12111;DHT22;6119;52.372;8.990;2022-11-20T13:19:25;3.50;99.90
12111;DHT22;6119;52.372;8.990;2022-11-20T13:22:24;3.50;99.90
12111;DHT22;6119;52.372;8.990;2022-11-20T13:25:22;3.60;99.90
12111;DHT22;6119;52.372;8.990;2022-11-20T13:28:27;3.40;99.90
12111;DHT22;6119;52.372;8.990;2022-11-20T13:31:29;3.40;99.90
12111;DHT22;6119;52.372;8.990;2022-11-20T13:34:24;3.40;99.90
12111;DHT22;6119;52.372;8.990;2022-11-20T13:37:27;3.40;99.90
12111;DHT22;6119;52.372;8.990;2022-11-20T13:40:22;3.60;99.90
12111;DHT22;6119;52.372;8.990;2022-11-20T13:43:19;3.60;99.90
12111;DHT22;6119;52.372;8.990;2022-11-20T13:46:09;3.70;99.90
12111;DHT22;6119;52.372;8.990;2022-11-20T13:48:56;3.50;99.90
12111;DHT22;6119;52.372;8.990;2022-11-20T13:51:45;3.20;99.90
12111;DHT22;6119;52.372;8.990;2022-11-20T13:54:55;3.30;99.90
12111;DHT22;6119;52.372;8.990;2022-11-20T13:58:07;3.30;99.90
12111;DHT22;6119;52.372;8.990;2022-11-20T14:01:00;3.30;99.90
12111;DHT22;6119;52.372;8.990;2022-11-20T14:03:48;3.40;99.90
12111;DHT22;6119;52.372;8.990;2022-11-20T14:06:51;3.50;99.90
12111;DHT22;6119;52.372;8.990;2022-11-20T14:09:37;3.50;99.90
12111;DHT22;6119;52.372;8.990;2022-11-20T14:12:30;3.50;99.90
12111;DHT22;6119;52.372;8.990;2022-11-20T14:15:28;3.40;99.90
12111;DHT22;6119;52.372;8.990;2022-11-20T14:18:20;3.30;99.90
12111;DHT22;6119;52.372;8.990;2022-11-20T14:21:09;3.30;99.90
12111;DHT22;6119;52.372;8.990;2022-11-20T14:24:04;3.40;99.90
12111;DHT22;6119;52.372;8.990;2022-11-20T14:26:51;3.30;99.90
12111;DHT22;6119;52.372;8.990;2022-11-20T14:29:40;3.20;99.90
12111;DHT22;6119;52.372;8.990;2022-11-20T14:32:29;3.30;99.90
12111;DHT22;6119;52.372;8.990;2022-11-20T14:35:21;3.30;99.90
12111;DHT22;6119;52.372;8.990;2022-11-20T14:38:12;3.20;99.90
12111;DHT22;6119;52.372;8.990;2022-11-20T14:41:06;3.10;99.90
12111;DHT22;6119;52.372;8.990;2022-11-20T14:43:56;3.10;99.90
12111;DHT22;6119;52.372;8.990;2022-11-20T14:46:45;3.10;99.90
12111;DHT22;6119;52.372;8.990;2022-11-20T14:49:32;2.90;99.90
12111;DHT22;6119;52.372;8.990;2022-11-20T14:52:21;2.90;99.90
12111;DHT22;6119;52.372;8.990;2022-11-20T14:55:13;2.80;99.90
12111;DHT22;6119;52.372;8.990;2022-11-20T14:58:02;2.80;99.90
12111;DHT22;6119;52.372;8.990;2022-11-20T15:00:53;2.80;99.90
12111;DHT22;6119;52.372;8.990;2022-11-20T15:03:42;2.70;99.90
12111;DHT22;6119;52.372;8.990;2022-11-20T15:06:29;2.70;99.90
12111;DHT22;6119;52.372;8.990;2022-11-20T15:09:16;2.60;99.90
12111;DHT22;6119;52.372;8.990;2022-11-20T15:12:03;2.60;99.90
12111;DHT22;6119;52.372;8.990;2022-11-20T15:14:50;2.50;99.90
12111;DHT22;6119;52.372;8.990;2022-11-20T15:17:38;2.40;99.90
12111;DHT22;6119;52.372;8.990;2022-11-20T15:20:31;2.30;99.90
12111;DHT22;6119;52.372;8.990;2022-11-20T15:23:18;2.30;99.90
12111;DHT22;6119;52.372;8.990;2022-11-20T15:26:05;2.30;99.90
12111;DHT22;6119;52.372;8.990;2022-11-20T15:28:52;2.20;99.90
12111;DHT22;6119;52.372;8.990;2022-11-20T15:31:40;2.10;99.90
12111;DHT22;6119;52.372;8.990;2022-11-20T15:34:29;2.10;99.90
12111;DHT22;6119;52.372;8.990;2022-11-20T15:37:16;2.20;99.90
12111;DHT22;6119;52.372;8.990;2022-11-20T15:40:04;2.10;99.90
12111;DHT22;6119;52.372;8.990;2022-11-20T15:42:51;2.10;99.90
12111;DHT22;6119;52.372;8.990;2022-11-20T15:46:00;2.00;99.90
12111;DHT22;6119;52.372;8.990;2022-11-20T15:48:51;2.00;99.90
12111;DHT22;6119;52.372;8.990;2022-11-20T15:51:39;2.00;99.90
12111;DHT22;6119;52.372;8.990;2022-11-20T15:54:27;2.10;99.90
12111;DHT22;6119;52.372;8.990;2022-11-20T15:57:14;2.00;99.90
12111;DHT22;6119;52.372;8.990;2022-11-20T16:00:01;2.10;99.90
12111;DHT22;6119;52.372;8.990;2022-11-20T16:02:48;2.00;99.90
12111;DHT22;6119;52.372;8.990;2022-11-20T16:05:35;2.00;99.90
12111;DHT22;6119;52.372;8.990;2022-11-20T16:08:21;2.00;99.90
12111;DHT22;6119;52.372;8.990;2022-11-20T16:11:11;2.00;99.90
12111;DHT22;6119;52.372;8.990;2022-11-20T16:13:58;2.10;99.90
12111;DHT22;6119;52.372;8.990;2022-11-20T16:17:02;2.10;99.90
12111;DHT22;6119;52.372;8.990;2022-11-20T16:19:49;2.10;99.90
12111;DHT22;6119;52.372;8.990;2022-11-20T16:22:36;2.00;99.90
12111;DHT22;6119;52.372;8.990;2022-11-20T16:25:22;2.00;99.90
12111;DHT22;6119;52.372;8.990;2022-11-20T16:28:10;2.00;99.90
12111;DHT22;6119;52.372;8.990;2022-11-20T16:31:09;2.00;99.90
12111;DHT22;6119;52.372;8.990;2022-11-20T16:33:57;2.00;99.90
12111;DHT22;6119;52.372;8.990;2022-11-20T16:36:44;2.00;99.90
12111;DHT22;6119;52.372;8.990;2022-11-20T16:39:31;2.00;99.90
12111;DHT22;6119;52.372;8.990;2022-11-20T16:42:17;2.00;99.90
12111;DHT22;6119;52.372;8.990;2022-11-20T16:45:06;2.00;99.90
12111;DHT22;6119;52.372;8.990;2022-11-20T16:47:53;2.00;99.90
12111;DHT22;6119;52.372;8.990;2022-11-20T16:50:45;2.00;99.90
12111;DHT22;6119;52.372;8.990;2022-11-20T16:53:33;2.00;99.90
12111;DHT22;6119;52.372;8.990;2022-11-20T16:56:21;2.00;99.90
12111;DHT22;6119;52.372;8.990;2022-11-20T16:59:09;2.00;99.90
12111;DHT22;6119;52.372;8.990;2022-11-20T17:01:57;2.00;99.90
12111;DHT22;6119;52.372;8.990;2022-11-20T17:04:44;2.00;99.90
12111;DHT22;6119;52.372;8.990;2022-11-20T17:07:30;2.00;99.90
12111;DHT22;6119;52.372;8.990;2022-11-20T17:10:17;2.00;99.90
12111;DHT22;6119;52.372;8.990;2022-11-20T17:13:04;2.00;99.90
12111;DHT22;6119;52.372;8.990;2022-11-20T17:15:51;2.60;99.90
12111;DHT22;6119;52.372;8.990;2022-11-20T17:18:39;2.00;99.90
12111;DHT22;6119;52.372;8.990;2022-11-20T17:21:26;2.00;99.90
12111;DHT22;6119;52.372;8.990;2022-11-20T17:24:13;2.10;99.90
12111;DHT22;6119;52.372;8.990;2022-11-20T17:27:01;2.10;99.90
12111;DHT22;6119;52.372;8.990;2022-11-20T17:29:47;2.10;99.90
12111;DHT22;6119;52.372;8.990;2022-11-20T17:32:34;2.10;99.90
12111;DHT22;6119;52.372;8.990;2022-11-20T17:35:22;2.10;99.90
12111;DHT22;6119;52.372;8.990;2022-11-20T17:38:09;2.10;99.90
12111;DHT22;6119;52.372;8.990;2022-11-20T17:41:01;2.10;99.90
12111;DHT22;6119;52.372;8.990;2022-11-20T17:43:48;2.10;99.90
12111;DHT22;6119;52.372;8.990;2022-11-20T17:46:35;2.10;99.90
12111;DHT22;6119;52.372;8.990;2022-11-20T17:49:22;2.10;99.90
12111;DHT22;6119;52.372;8.990;2022-11-20T17:52:10;2.10;99.90
12111;DHT22;6119;52.372;8.990;2022-11-20T17:54:56;2.10;99.90
12111;DHT22;6119;52.372;8.990;2022-11-20T17:57:43;2.20;99.90
12111;DHT22;6119;52.372;8.990;2022-11-20T18:00:37;2.10;99.90
12111;DHT22;6119;52.372;8.990;2022-11-20T18:03:23;2.10;99.90
12111;DHT22;6119;52.372;8.990;2022-11-20T18:06:11;2.10;99.90
12111;DHT22;6119;52.372;8.990;2022-11-20T18:09:01;2.20;99.90
12111;DHT22;6119;52.372;8.990;2022-11-20T18:11:49;2.20;99.90
12111;DHT22;6119;52.372;8.990;2022-11-20T18:14:36;2.20;99.90
12111;DHT22;6119;52.372;8.990;2022-11-20T18:17:23;2.20;99.90
12111;DHT22;6119;52.372;8.990;2022-11-20T18:20:10;2.10;99.90
12111;DHT22;6119;52.372;8.990;2022-11-20T18:23:13;2.20;99.90
12111;DHT22;6119;52.372;8.990;2022-11-20T18:26:01;2.30;99.90